Time;durP1;ratioP1;P1;durP2;ratioP2;P2;SDS_P1;SDS_P2;PMS_P1;PMS_P2;Temp;Humidity;BMP_temperature;BMP_pressure;BME280_temperature;BME280_humidity;BME280_pressure;Samples;Min_cycle;Max_cycle;Signal;HPM_P1;HPM_P2
2023/07/02 00:00:11;;;;;;;3.58;2.83;;;;;;;25.76;55.96;98123.41;2064190;28;20054;-49
2023/07/02 00:01:13;;;;;;;5.47;3.38;;;;;;;25.81;56.32;98130.78;2062999;28;20045;-48
2023/07/02 00:02:14;;;;;;;6.13;3.28;;;;;;;25.84;56.04;98124.84;2062263;28;20057;-51
2023/07/02 00:03:16;;;;;;;4.70;2.65;;;;;;;25.84;55.80;98119.41;2061398;28;20054;-48
2023/07/02 00:04:19;;;;;;;4.05;2.85;;;;;;;25.83;56.05;98125.94;2062994;28;20042;-49
2023/07/02 00:05:21;;;;;;;4.43;2.85;;;;;;;25.76;55.98;98122.59;2062962;28;20136;-48
2023/07/02 00:06:22;;;;;;;4.63;2.90;;;;;;;25.75;56.05;98126.41;2063680;28;20508;-52
2023/07/02 00:07:25;;;;;;;5.60;3.40;;;;;;;25.69;56.47;98122.03;2063363;28;20053;-47
2023/07/02 00:08:26;;;;;;;4.90;3.40;;;;;;;25.75;56.18;98116.34;2059697;28;20073;-49
2023/07/02 00:09:28;;;;;;;4.25;3.30;;;;;;;25.75;56.07;98124.50;2064726;28;20108;-48
2023/07/02 00:10:29;;;;;;;3.60;2.90;;;;;;;25.77;56.11;98116.91;2060556;28;20043;-49
2023/07/02 00:11:31;;;;;;;5.95;3.25;;;;;;;25.80;56.13;98118.28;2054037;28;20046;-48
2023/07/02 00:12:33;;;;;;;4.85;3.10;;;;;;;25.80;56.11;98118.28;2063753;28;20069;-51
2023/07/02 00:13:35;;;;;;;4.10;2.78;;;;;;;25.77;56.64;98118.78;2062580;28;20072;-48
2023/07/02 00:14:36;;;;;;;4.47;3.38;;;;;;;25.79;56.10;98113.91;2062713;28;20053;-47
2023/07/02 00:15:37;;;;;;;5.97;3.22;;;;;;;25.79;56.19;98117.44;2063069;28;20056;-50
2023/07/02 00:16:42;;;;;;;5.55;3.53;;;;;;;25.78;56.40;98115.81;2064010;28;20049;-48
2023/07/02 00:17:44;;;;;;;5.35;3.70;;;;;;;25.79;56.19;98122.88;2062591;28;20045;-49
2023/07/02 00:18:48;;;;;;;4.40;2.90;;;;;;;25.83;56.24;98115.06;2062809;28;20050;-49
2023/07/02 00:19:51;;;;;;;5.25;2.55;;;;;;;25.84;55.87;98119.41;2059240;28;20050;-49
2023/07/02 00:20:52;;;;;;;4.68;2.85;;;;;;;25.84;56.33;98117.50;2065690;28;20052;-49
2023/07/02 00:21:55;;;;;;;3.70;2.92;;;;;;;25.86;56.22;98111.81;2062243;28;20432;-49
2023/07/02 00:22:56;;;;;;;3.80;3.28;;;;;;;25.85;56.20;98110.16;2064716;28;20993;-49
2023/07/02 00:23:58;;;;;;;4.43;3.45;;;;;;;25.81;56.47;98111.75;2061978;28;20042;-48
2023/07/02 00:25:00;;;;;;;6.53;3.10;;;;;;;25.74;56.38;98108.44;2057679;28;20049;-49
2023/07/02 00:26:01;;;;;;;5.10;3.75;;;;;;;25.69;56.71;98103.00;2062507;28;20049;-48
2023/07/02 00:27:03;;;;;;;4.63;3.00;;;;;;;25.66;56.51;98096.19;2062595;28;20049;-49
2023/07/02 00:28:06;;;;;;;5.43;3.17;;;;;;;25.65;56.62;98102.69;2057457;28;20575;-50
2023/07/02 00:29:09;;;;;;;6.70;3.42;;;;;;;25.63;56.55;98105.69;2061428;28;20054;-49
2023/07/02 00:30:11;;;;;;;4.15;3.08;;;;;;;25.61;56.89;98101.59;2061189;28;20583;-48
2023/07/02 00:31:12;;;;;;;7.25;3.63;;;;;;;25.64;56.73;98103.78;2060258;28;20042;-49
2023/07/02 00:32:14;;;;;;;3.25;2.95;;;;;;;25.65;56.61;98097.25;2061566;28;20133;-49
2023/07/02 00:33:15;;;;;;;7.13;3.75;;;;;;;25.71;56.50;98101.63;2063304;28;20488;-51
2023/07/02 00:34:17;;;;;;;6.18;2.85;;;;;;;25.74;56.35;98097.56;2062294;28;20048;-48
2023/07/02 00:35:18;;;;;;;5.15;3.63;;;;;;;25.72;56.38;98100.56;2064469;28;20108;-48
2023/07/02 00:36:20;;;;;;;4.93;3.70;;;;;;;25.74;56.70;98105.72;2063493;28;20046;-48
2023/07/02 00:37:21;;;;;;;5.47;2.85;;;;;;;25.74;56.43;98105.72;2063031;28;20077;-48
2023/07/02 00:38:23;;;;;;;5.00;3.90;;;;;;;25.71;56.91;98098.91;2061782;28;20774;-50
2023/07/02 00:39:24;;;;;;;4.97;3.25;;;;;;;25.74;56.82;98105.72;2063513;28;20157;-48
2023/07/02 00:40:28;;;;;;;4.65;3.17;;;;;;;25.76;56.45;98106.28;2060679;28;20193;-48
2023/07/02 00:41:29;;;;;;;5.43;3.28;;;;;;;25.72;56.32;98099.75;2060739;28;20440;-48
2023/07/02 00:42:30;;;;;;;3.83;2.97;;;;;;;25.77;56.78;98107.91;2060686;28;20058;-51
2023/07/02 00:43:33;;;;;;;4.78;2.85;;;;;;;25.79;56.48;98105.75;2062694;28;20650;-48
2023/07/02 00:44:40;;;;;;;4.32;2.47;;;;;;;25.82;56.06;98113.38;2061618;28;20046;-50
2023/07/02 00:45:41;;;;;;;6.28;3.53;;;;;;;25.80;56.04;98101.97;2061542;28;20085;-47
2023/07/02 00:46:43;;;;;;;4.38;3.28;;;;;;;25.82;56.33;98105.22;2065345;28;20437;-48
2023/07/02 00:47:45;;;;;;;6.15;3.80;;;;;;;25.83;56.20;98113.16;2062512;28;20193;-50
2023/07/02 00:48:48;;;;;;;6.53;3.28;;;;;;;25.83;56.51;98112.34;2062492;28;20107;-48
2023/07/02 00:49:49;;;;;;;4.93;3.75;;;;;;;25.79;56.53;98111.19;2063614;28;20061;-48
2023/07/02 00:50:51;;;;;;;6.25;2.70;;;;;;;25.79;56.48;98111.19;2062530;28;20137;-47
2023/07/02 00:51:51;;;;;;;4.13;3.00;;;;;;;25.74;56.53;98108.44;2064358;28;20076;-49
2023/07/02 00:52:54;;;;;;;4.38;2.85;;;;;;;25.77;56.66;98114.19;2059251;28;20057;-48
2023/07/02 00:53:57;;;;;;;6.63;3.60;;;;;;;25.75;56.40;98108.19;2064161;28;20060;-50
2023/07/02 00:54:58;;;;;;;4.53;2.47;;;;;;;25.73;56.47;98104.09;2063853;28;20045;-48
2023/07/02 00:55:59;;;;;;;6.60;3.63;;;;;;;25.74;56.47;98116.59;2064251;28;20144;-48
2023/07/02 00:57:03;;;;;;;3.95;2.95;;;;;;;25.77;56.44;98103.31;2054324;28;20054;-48
2023/07/02 00:58:04;;;;;;;11.20;4.43;;;;;;;25.80;56.02;98107.41;2062428;28;20049;-49
2023/07/02 00:59:07;;;;;;;6.47;3.38;;;;;;;25.80;56.29;98102.78;2061479;28;20171;-48
2023/07/02 01:00:09;;;;;;;4.38;3.50;;;;;;;25.77;56.66;98107.91;2063635;28;20053;-48
2023/07/02 01:01:11;;;;;;;5.20;3.53;;;;;;;25.70;56.46;98102.72;2062250;28;20056;-48
2023/07/02 01:02:12;;;;;;;4.05;3.30;;;;;;;25.72;56.72;98102.47;2062346;28;20064;-47
2023/07/02 01:03:14;;;;;;;3.97;2.78;;;;;;;25.79;56.20;98105.75;2063513;28;20058;-47
2023/07/02 01:04:17;;;;;;;4.70;3.70;;;;;;;25.81;56.10;98095.47;2061786;28;20057;-46
2023/07/02 01:05:21;;;;;;;4.20;3.10;;;;;;;25.77;56.55;98102.47;2062034;28;20073;-50
2023/07/02 01:06:27;;;;;;;7.68;3.85;;;;;;;25.73;56.55;98096.78;2063894;28;20790;-48
2023/07/02 01:07:29;;;;;;;5.20;3.47;;;;;;;25.75;56.07;98104.66;2058919;28;20166;-48
2023/07/02 01:08:30;;;;;;;5.32;3.55;;;;;;;25.71;56.77;98098.09;2064553;28;20077;-47
2023/07/02 01:09:32;;;;;;;5.05;3.00;;;;;;;25.66;56.89;98100.78;2062915;28;20048;-47
2023/07/02 01:10:35;;;;;;;6.90;3.83;;;;;;;25.58;56.91;98097.50;2055703;28;20058;-52
2023/07/02 01:11:41;;;;;;;9.98;3.83;;;;;;;25.55;57.12;98095.31;2058777;28;21759;-48
2023/07/02 01:12:43;;;;;;;4.30;3.65;;;;;;;25.52;57.33;98095.00;2062953;28;20046;-49
2023/07/02 01:13:44;;;;;;;4.88;3.60;;;;;;;25.60;56.81;98100.78;2062394;28;20809;-49
2023/07/02 01:14:50;;;;;;;4.28;2.97;;;;;;;25.71;56.50;98096.22;2063378;28;20050;-51
2023/07/02 01:15:51;;;;;;;4.50;3.03;;;;;;;25.74;56.23;98095.72;2063261;28;20050;-48
2023/07/02 01:16:55;;;;;;;5.22;2.88;;;;;;;25.73;56.33;98104.91;2060477;28;20050;-51
2023/07/02 01:17:57;;;;;;;5.68;3.28;;;;;;;25.66;56.45;98100.78;2062284;28;20049;-48
2023/07/02 01:18:59;;;;;;;5.68;3.25;;;;;;;25.62;57.22;98103.22;2063279;28;20053;-49
2023/07/02 01:20:01;;;;;;;5.18;3.38;;;;;;;25.64;56.78;98104.59;2063283;28;20049;-49
2023/07/02 01:21:07;;;;;;;4.78;3.28;;;;;;;25.60;56.79;98091.78;2060940;28;20042;-47
2023/07/02 01:22:08;;;;;;;7.15;3.33;;;;;;;25.60;56.66;98098.06;2062009;28;20054;-50
2023/07/02 01:23:11;;;;;;;5.75;3.30;;;;;;;25.59;56.80;98090.97;2065152;28;20053;-47
2023/07/02 01:24:14;;;;;;;4.22;2.70;;;;;;;25.55;57.11;98089.06;2058505;28;20077;-48
2023/07/02 01:25:17;;;;;;;5.10;3.40;;;;;;;25.51;57.32;98093.38;2061301;28;20108;-47
2023/07/02 01:26:18;;;;;;;4.78;3.10;;;;;;;25.49;57.57;98090.94;2064170;28;20042;-48
2023/07/02 01:27:21;;;;;;;4.53;3.67;;;;;;;25.46;57.09;98091.44;2061769;28;20097;-47
2023/07/02 01:28:23;;;;;;;6.78;3.35;;;;;;;25.45;57.48;98099.88;2063068;28;20136;-49
2023/07/02 01:29:25;;;;;;;3.75;3.08;;;;;;;25.41;57.67;98097.66;2062741;28;20064;-50
2023/07/02 01:30:26;;;;;;;6.20;3.58;;;;;;;25.42;57.56;98103.91;2063732;28;20120;-48
2023/07/02 01:31:28;;;;;;;3.67;2.65;;;;;;;25.37;57.85;98096.53;2064529;28;20049;-48
2023/07/02 01:32:29;;;;;;;5.38;3.15;;;;;;;25.34;58.03;98097.06;2063326;28;20516;-47
2023/07/02 01:33:30;;;;;;;5.90;3.63;;;;;;;25.34;57.63;98091.63;2065204;28;20084;-50
2023/07/02 01:34:31;;;;;;;6.07;2.70;;;;;;;25.34;57.58;98088.09;2063826;28;20073;-48
2023/07/02 01:35:35;;;;;;;6.28;3.17;;;;;;;25.33;57.79;98091.91;2063241;28;20061;-49
2023/07/02 01:36:35;;;;;;;4.35;3.55;;;;;;;25.34;57.51;98085.41;2061404;28;20081;-47
2023/07/02 01:37:38;;;;;;;4.20;2.92;;;;;;;25.32;58.10;98095.69;2064292;28;20049;-48
2023/07/02 01:38:40;;;;;;;7.45;3.67;;;;;;;25.36;57.64;98094.09;2062955;28;20526;-49
2023/07/02 01:39:40;;;;;;;5.97;3.25;;;;;;;25.38;57.79;98094.63;2064512;28;20052;-49
2023/07/02 01:40:42;;;;;;;6.47;3.42;;;;;;;25.36;57.93;98094.09;2061829;28;20152;-50
2023/07/02 01:41:45;;;;;;;4.68;3.00;;;;;;;25.34;57.94;98091.63;2062698;28;20065;-48
2023/07/02 01:42:46;;;;;;;4.07;2.75;;;;;;;25.32;57.39;98095.69;2061450;28;20501;-47
2023/07/02 01:43:47;;;;;;;7.10;4.13;;;;;;;25.31;57.84;98094.06;2063760;28;20041;-47
2023/07/02 01:44:51;;;;;;;9.50;3.42;;;;;;;25.30;57.99;98092.44;2062527;28;20624;-48
2023/07/02 01:45:51;;;;;;;5.68;2.95;;;;;;;25.32;57.90;98088.34;2063674;28;20054;-49
2023/07/02 01:46:55;;;;;;;3.22;2.80;;;;;;;25.32;57.27;98090.25;2065307;28;20053;-50
2023/07/02 01:47:56;;;;;;;4.93;3.33;;;;;;;25.30;57.72;98095.16;2064106;28;20496;-49
2023/07/02 01:48:58;;;;;;;6.10;3.70;;;;;;;25.26;58.00;98089.41;2066486;28;20050;-51
2023/07/02 01:49:59;;;;;;;6.60;3.95;;;;;;;25.27;57.76;98093.78;2064387;28;20690;-48
2023/07/02 01:51:02;;;;;;;6.43;3.63;;;;;;;25.28;58.06;98086.44;2064648;28;20057;-48
2023/07/02 01:52:05;;;;;;;4.03;3.25;;;;;;;25.29;57.56;98090.78;2066417;28;20053;-47
2023/07/02 01:53:07;;;;;;;4.38;2.97;;;;;;;25.27;58.07;98090.22;2065630;28;20069;-50
2023/07/02 01:54:07;;;;;;;6.05;3.15;;;;;;;25.26;57.78;98085.88;2064578;28;20080;-49
2023/07/02 01:55:10;;;;;;;7.07;3.58;;;;;;;25.26;57.91;98086.69;2061994;28;20046;-48
2023/07/02 01:56:10;;;;;;;5.03;3.92;;;;;;;25.28;57.61;98086.44;2064418;28;20050;-49
2023/07/02 01:57:12;;;;;;;4.28;3.03;;;;;;;25.28;57.83;98084.53;2065640;28;20125;-49
2023/07/02 01:58:13;;;;;;;7.05;3.08;;;;;;;25.29;57.61;98085.34;2065450;28;20077;-49
2023/07/02 01:59:16;;;;;;;6.93;3.25;;;;;;;25.29;57.81;98080.75;2061890;28;20054;-54
2023/07/02 02:00:18;;;;;;;4.65;3.22;;;;;;;25.29;58.14;98086.16;2064800;28;20470;-48
2023/07/02 02:01:19;;;;;;;6.40;3.65;;;;;;;25.27;58.15;98092.94;2064316;28;20096;-49
2023/07/02 02:02:20;;;;;;;6.68;3.60;;;;;;;25.25;58.35;98095.91;2061041;28;20408;-50
2023/07/02 02:03:23;;;;;;;7.25;3.78;;;;;;;25.23;58.18;98087.22;2064834;28;20052;-49
2023/07/02 02:04:24;;;;;;;7.28;3.30;;;;;;;25.23;57.96;98089.13;2065099;28;20054;-47
2023/07/02 02:05:26;;;;;;;5.63;2.60;;;;;;;25.27;57.82;98084.78;2064410;28;20150;-48
2023/07/02 02:06:28;;;;;;;5.25;3.08;;;;;;;25.31;57.63;98086.72;2067644;28;20061;-52
2023/07/02 02:07:30;;;;;;;5.47;3.90;;;;;;;25.36;57.91;98091.38;2064178;28;20869;-48
2023/07/02 02:08:31;;;;;;;3.80;3.03;;;;;;;25.36;57.88;98092.19;2066245;28;20076;-50
2023/07/02 02:09:32;;;;;;;4.65;3.22;;;;;;;25.34;58.00;98096.25;2062628;28;20797;-51
2023/07/02 02:10:33;;;;;;;4.55;2.95;;;;;;;25.32;57.70;98090.25;2063779;28;20123;-50
2023/07/02 02:11:39;;;;;;;7.88;3.38;;;;;;;25.31;58.11;98083.22;2062946;28;20058;-47
2023/07/02 02:12:39;;;;;;;4.30;3.25;;;;;;;25.31;57.75;98091.34;2060676;28;21584;-47
2023/07/02 02:13:41;;;;;;;5.18;3.42;;;;;;;25.32;57.93;98085.63;2067360;28;20054;-47
2023/07/02 02:14:42;;;;;;;5.80;4.18;;;;;;;25.35;57.92;98087.03;2065658;28;20237;-47
2023/07/02 02:15:44;;;;;;;4.80;3.05;;;;;;;25.35;57.37;98084.31;2063832;28;20134;-49
2023/07/02 02:16:45;;;;;;;5.90;3.70;;;;;;;25.33;57.63;98086.47;2068498;28;20059;-48
2023/07/02 02:17:47;;;;;;;5.82;2.97;;;;;;;25.34;58.15;98091.63;2064294;28;20272;-48
2023/07/02 02:18:51;;;;;;;7.15;2.90;;;;;;;25.36;57.74;98094.91;2062098;28;20046;-49
2023/07/02 02:19:53;;;;;;;8.25;3.40;;;;;;;25.34;57.81;98088.09;2062774;28;20132;-49
2023/07/02 02:20:54;;;;;;;4.72;3.45;;;;;;;25.29;57.85;98090.78;2066257;28;20419;-49
2023/07/02 02:21:57;;;;;;;6.03;3.75;;;;;;;25.31;57.53;98094.06;2065205;28;20125;-48
2023/07/02 02:22:58;;;;;;;6.45;3.45;;;;;;;25.30;57.64;98089.72;2066707;28;20084;-48
2023/07/02 02:24:00;;;;;;;6.65;3.88;;;;;;;25.30;57.64;98092.44;2065722;28;20144;-50
2023/07/02 02:25:00;;;;;;;5.15;3.17;;;;;;;25.31;57.78;98089.44;2064964;28;20578;-50
2023/07/02 02:26:02;;;;;;;6.55;3.13;;;;;;;25.29;57.58;98086.16;2062919;28;20056;-47
2023/07/02 02:27:04;;;;;;;4.40;3.03;;;;;;;25.28;57.68;98091.88;2065536;28;20752;-49
2023/07/02 02:28:06;;;;;;;6.85;3.72;;;;;;;25.24;58.21;98085.31;2065861;28;20042;-48
2023/07/02 02:29:07;;;;;;;4.97;3.78;;;;;;;25.22;57.99;98087.50;2064129;28;20050;-47
2023/07/02 02:30:10;;;;;;;5.60;2.83;;;;;;;25.25;57.68;98086.97;2061379;28;20060;-49
2023/07/02 02:31:10;;;;;;;4.72;3.65;;;;;;;25.28;57.71;98089.16;2065458;28;20045;-48
2023/07/02 02:32:12;;;;;;;5.10;3.13;;;;;;;25.32;57.74;98084.84;2063233;28;20132;-47
2023/07/02 02:33:13;;;;;;;7.43;3.40;;;;;;;25.33;57.38;98086.47;2064628;28;20038;-49
2023/07/02 02:34:15;;;;;;;5.55;3.85;;;;;;;25.32;57.72;98085.63;2062567;28;20500;-48
2023/07/02 02:35:16;;;;;;;6.38;3.40;;;;;;;25.34;57.52;98080.78;2064015;28;20475;-49
2023/07/02 02:36:17;;;;;;;4.82;3.40;;;;;;;25.34;57.46;98082.69;2062577;28;20141;-48
2023/07/02 02:37:21;;;;;;;6.22;3.17;;;;;;;25.34;57.81;98088.09;2064902;28;20065;-50
2023/07/02 02:38:23;;;;;;;5.05;3.40;;;;;;;25.34;57.46;98086.22;2063763;28;20050;-48
2023/07/02 02:39:24;;;;;;;5.40;3.53;;;;;;;25.36;57.62;98080.53;2063944;28;20058;-49
2023/07/02 02:40:26;;;;;;;7.35;3.50;;;;;;;25.37;57.70;98084.88;2062237;28;20133;-51
2023/07/02 02:41:27;;;;;;;4.30;2.38;;;;;;;25.36;57.86;98085.97;2062669;28;20463;-48
2023/07/02 02:42:28;;;;;;;4.55;3.17;;;;;;;25.32;57.87;98085.63;2065710;28;20060;-47
2023/07/02 02:43:29;;;;;;;4.82;3.38;;;;;;;25.34;57.66;98082.69;2063426;28;20083;-48
2023/07/02 02:44:32;;;;;;;6.35;3.97;;;;;;;25.31;57.74;98083.22;2064401;28;20641;-48
2023/07/02 02:45:33;;;;;;;6.78;3.28;;;;;;;25.31;57.78;98088.63;2065301;28;20054;-47
2023/07/02 02:46:35;;;;;;;4.70;3.30;;;;;;;25.38;57.64;98089.22;2063654;28;20054;-50
2023/07/02 02:47:35;;;;;;;3.47;3.15;;;;;;;25.39;57.35;98090.88;2061313;28;20050;-52
2023/07/02 02:48:37;;;;;;;5.22;2.92;;;;;;;25.43;57.34;98086.53;2062219;28;20137;-47
2023/07/02 02:49:39;;;;;;;5.90;3.40;;;;;;;25.42;57.18;98091.16;2065927;28;20065;-49
2023/07/02 02:50:42;;;;;;;5.47;3.55;;;;;;;25.45;57.07;98089.81;2063977;28;20053;-48
2023/07/02 02:51:43;;;;;;;7.28;3.30;;;;;;;25.44;56.93;98088.19;2062828;28;20061;-49
2023/07/02 02:52:46;;;;;;;7.15;3.63;;;;;;;25.44;57.44;98084.66;2065393;28;20125;-54
2023/07/02 02:53:47;;;;;;;5.53;3.25;;;;;;;25.44;57.39;98084.66;2062303;28;20501;-49
2023/07/02 02:54:52;;;;;;;3.40;2.58;;;;;;;25.45;57.17;98084.38;2064439;28;20050;-50
2023/07/02 02:55:53;;;;;;;6.50;3.63;;;;;;;25.48;57.48;98088.47;2062261;28;20877;-47
2023/07/02 02:56:55;;;;;;;7.20;2.83;;;;;;;25.49;57.21;98090.09;2063824;28;20129;-51
2023/07/02 02:57:56;;;;;;;4.53;3.15;;;;;;;25.50;57.21;98086.31;2064896;28;20917;-51
2023/07/02 02:58:58;;;;;;;5.32;3.17;;;;;;;25.51;56.63;98085.22;2067010;28;20049;-47
2023/07/02 02:59:58;;;;;;;5.65;3.55;;;;;;;25.53;56.80;98088.50;2065025;28;20593;-49
2023/07/02 03:01:00;;;;;;;4.63;4.07;;;;;;;25.50;57.04;98091.75;2065705;28;20128;-49
2023/07/02 03:02:01;;;;;;;6.85;3.05;;;;;;;25.45;57.53;98089.81;2062842;28;20053;-48
2023/07/02 03:03:03;;;;;;;7.28;3.25;;;;;;;25.44;57.31;98082.75;2062713;28;20137;-51
2023/07/02 03:04:08;;;;;;;4.70;3.45;;;;;;;25.44;57.10;98082.75;2062678;28;20083;-48
2023/07/02 03:05:10;;;;;;;4.63;3.35;;;;;;;25.49;56.71;98085.50;2065304;28;20496;-48
2023/07/02 03:06:12;;;;;;;5.88;3.10;;;;;;;25.54;57.31;98092.84;2062461;28;20057;-50
2023/07/02 03:07:14;;;;;;;6.05;3.15;;;;;;;25.54;57.05;98088.22;2062729;28;20050;-47
2023/07/02 03:08:16;;;;;;;3.90;3.38;;;;;;;25.56;56.62;98083.38;2063876;28;20078;-50
2023/07/02 03:09:18;;;;;;;5.82;3.20;;;;;;;25.53;57.10;98089.31;2061576;28;20053;-49
2023/07/02 03:10:19;;;;;;;3.97;3.15;;;;;;;25.52;57.34;98089.56;2063782;28;20050;-51
2023/07/02 03:11:20;;;;;;;7.40;3.15;;;;;;;25.50;57.36;98084.41;2061715;28;20137;-50
2023/07/02 03:12:22;;;;;;;7.22;3.42;;;;;;;25.51;57.34;98085.22;2062553;28;20128;-51
2023/07/02 03:13:24;;;;;;;6.78;4.25;;;;;;;25.49;56.90;98080.09;2065193;28;20045;-50
2023/07/02 03:14:24;;;;;;;6.07;3.65;;;;;;;25.54;57.05;98090.94;2062324;28;20061;-49
2023/07/02 03:15:26;;;;;;;6.47;3.42;;;;;;;25.53;57.17;98092.03;2064117;28;20141;-48
2023/07/02 03:16:27;;;;;;;5.65;3.38;;;;;;;25.49;57.37;98085.50;2066459;28;20647;-50
2023/07/02 03:17:29;;;;;;;4.00;2.83;;;;;;;25.53;56.65;98085.78;2063640;28;20057;-47
2023/07/02 03:18:30;;;;;;;3.97;2.67;;;;;;;25.56;57.05;98085.28;2063609;28;20054;-49
2023/07/02 03:19:31;;;;;;;4.30;3.35;;;;;;;25.53;57.23;98085.78;2058458;28;20057;-48
2023/07/02 03:20:32;;;;;;;5.43;3.42;;;;;;;25.52;57.26;98089.56;2064740;28;20078;-49
2023/07/02 03:21:33;;;;;;;3.72;3.20;;;;;;;25.50;57.33;98086.31;2067248;28;20514;-52
2023/07/02 03:22:35;;;;;;;3.63;2.53;;;;;;;25.47;57.43;98090.38;2064700;28;20116;-47
2023/07/02 03:23:37;;;;;;;7.47;3.83;;;;;;;25.46;57.22;98087.91;2065414;28;20054;-51
2023/07/02 03:24:39;;;;;;;5.35;3.22;;;;;;;25.39;57.42;98090.88;2062475;28;20050;-47
2023/07/02 03:25:40;;;;;;;5.05;3.28;;;;;;;25.34;57.47;98088.09;2066535;28;20413;-48
2023/07/02 03:26:42;;;;;;;5.75;3.20;;;;;;;25.31;57.68;98089.44;2065088;28;20057;-49
2023/07/02 03:27:43;;;;;;;8.13;3.50;;;;;;;25.32;57.61;98085.63;2064981;28;20642;-49
2023/07/02 03:28:44;;;;;;;6.70;4.22;;;;;;;25.33;57.77;98089.19;2064318;28;20100;-48
2023/07/02 03:29:45;;;;;;;6.10;3.30;;;;;;;25.36;57.34;98091.38;2066197;28;20543;-49
2023/07/02 03:30:47;;;;;;;5.35;2.83;;;;;;;25.35;57.85;98092.44;2064565;28;20050;-49
2023/07/02 03:31:48;;;;;;;6.70;3.30;;;;;;;25.32;57.65;98092.97;2061473;28;20049;-52
2023/07/02 03:32:50;;;;;;;6.47;3.65;;;;;;;25.31;57.64;98094.88;2062605;28;20058;-48
2023/07/02 03:33:50;;;;;;;7.40;3.67;;;;;;;25.30;57.60;98095.16;2063301;28;20057;-51
2023/07/02 03:34:52;;;;;;;4.78;3.63;;;;;;;25.35;57.64;98095.16;2061815;28;20049;-50
2023/07/02 03:35:53;;;;;;;4.80;3.60;;;;;;;25.39;57.33;98105.25;2060853;28;20058;-52
2023/07/02 03:36:55;;;;;;;6.38;3.60;;;;;;;25.38;57.44;98100.06;2057812;28;20057;-48
2023/07/02 03:37:57;;;;;;;8.30;3.03;;;;;;;25.41;57.19;98097.66;2063619;28;20060;-50
2023/07/02 03:39:00;;;;;;;5.65;3.53;;;;;;;25.41;57.64;98105.81;2063597;28;20472;-48
2023/07/02 03:40:01;;;;;;;6.20;2.83;;;;;;;25.43;57.50;98108.25;2060438;28;20049;-49
2023/07/02 03:41:03;;;;;;;6.47;3.38;;;;;;;25.41;57.69;98100.38;2062251;28;20411;-50
2023/07/02 03:42:05;;;;;;;4.70;3.22;;;;;;;25.41;57.43;98102.28;2062418;28;20057;-50
2023/07/02 03:43:07;;;;;;;4.97;3.53;;;;;;;25.36;57.70;98103.06;2059111;28;20095;-48
2023/07/02 03:44:08;;;;;;;3.25;2.55;;;;;;;25.33;57.74;98105.47;2063509;28;20077;-48
2023/07/02 03:45:10;;;;;;;7.43;3.70;;;;;;;25.31;57.67;98107.63;2063213;28;20042;-49
2023/07/02 03:46:11;;;;;;;4.15;3.10;;;;;;;25.31;57.74;98110.34;2063156;28;20524;-49
2023/07/02 03:47:15;;;;;;;4.15;3.08;;;;;;;25.37;57.72;98115.53;2063990;28;20053;-50
2023/07/02 03:48:16;;;;;;;6.68;3.70;;;;;;;25.32;57.88;98117.41;2062405;28;20102;-49
2023/07/02 03:49:18;;;;;;;4.55;3.13;;;;;;;25.28;57.76;98111.69;2061163;28;20058;-49
2023/07/02 03:50:19;;;;;;;6.20;3.10;;;;;;;25.30;57.37;98119.59;2064945;28;20053;-48
2023/07/02 03:51:21;;;;;;;7.63;3.22;;;;;;;25.29;57.69;98112.50;2063660;28;20140;-49
2023/07/02 03:52:22;;;;;;;5.10;3.67;;;;;;;25.30;57.92;98109.53;2065628;28;20133;-48
2023/07/02 03:53:23;;;;;;;6.07;3.53;;;;;;;25.28;57.60;98119.00;2060560;28;20676;-51
2023/07/02 03:54:26;;;;;;;5.95;3.53;;;;;;;25.27;57.46;98120.06;2060759;28;20050;-50
2023/07/02 03:55:27;;;;;;;5.53;3.50;;;;;;;25.25;57.89;98130.41;2064179;28;20050;-51
2023/07/02 03:56:28;;;;;;;4.53;3.58;;;;;;;25.28;57.57;98124.44;2065222;28;20056;-51
2023/07/02 03:57:30;;;;;;;5.90;3.33;;;;;;;25.21;58.10;98126.53;2065507;28;20623;-49
2023/07/02 03:58:31;;;;;;;4.53;3.45;;;;;;;25.14;57.90;98133.00;2064276;28;20049;-49
2023/07/02 03:59:33;;;;;;;4.82;3.10;;;;;;;25.11;57.99;98129.97;2063783;28;20499;-49
2023/07/02 04:00:33;;;;;;;5.63;2.92;;;;;;;25.10;58.23;98137.31;2064272;28;20108;-49
2023/07/02 04:01:35;;;;;;;8.63;3.55;;;;;;;25.07;58.08;98135.06;2064022;28;20058;-49
2023/07/02 04:02:36;;;;;;;6.35;3.55;;;;;;;25.06;58.33;98128.03;2063101;28;20420;-49
2023/07/02 04:03:38;;;;;;;7.05;3.55;;;;;;;25.05;58.52;98137.25;2062282;28;20136;-48
2023/07/02 04:04:39;;;;;;;6.65;3.72;;;;;;;25.07;58.04;98139.69;2062751;28;20038;-48
2023/07/02 04:05:41;;;;;;;4.78;3.60;;;;;;;25.09;58.22;98140.25;2061958;28;20085;-52
2023/07/02 04:06:41;;;;;;;6.28;3.20;;;;;;;25.07;58.48;98143.22;2064003;28;20823;-49
2023/07/02 04:07:43;;;;;;;8.52;3.28;;;;;;;25.05;58.04;98141.88;2064001;28;20061;-51
2023/07/02 04:08:45;;;;;;;5.65;3.80;;;;;;;25.00;58.79;98137.19;2058005;28;20129;-49
2023/07/02 04:09:48;;;;;;;7.90;3.45;;;;;;;24.97;58.31;98137.72;2064269;28;20054;-49
2023/07/02 04:10:49;;;;;;;9.65;3.80;;;;;;;24.91;59.03;98144.19;2064532;28;20076;-48
2023/07/02 04:11:50;;;;;;;4.45;3.05;;;;;;;24.89;58.86;98143.63;2063991;28;20074;-48
2023/07/02 04:12:51;;;;;;;5.03;3.28;;;;;;;24.87;58.64;98145.75;2062225;28;20070;-51
2023/07/02 04:13:53;;;;;;;5.03;3.20;;;;;;;24.88;58.91;98139.28;2061589;28;20412;-51
2023/07/02 04:14:54;;;;;;;5.68;3.72;;;;;;;24.89;58.95;98151.75;2063760;28;20054;-51
2023/07/02 04:15:56;;;;;;;7.10;2.85;;;;;;;24.86;58.92;98153.06;2059638;28;20050;-48
2023/07/02 04:16:58;;;;;;;6.45;3.50;;;;;;;24.86;58.98;98146.84;2058539;28;20049;-49
2023/07/02 04:18:00;;;;;;;7.55;3.17;;;;;;;24.86;58.83;98149.56;2065955;28;20137;-49
2023/07/02 04:19:00;;;;;;;5.97;3.78;;;;;;;24.86;58.56;98147.66;2062520;28;20222;-49
2023/07/02 04:20:03;;;;;;;6.60;3.20;;;;;;;24.90;58.69;98150.66;2064408;28;20791;-48
2023/07/02 04:21:04;;;;;;;3.78;3.38;;;;;;;24.89;58.86;98147.13;2064566;28;20092;-50
2023/07/02 04:22:07;;;;;;;7.97;4.03;;;;;;;24.89;58.82;98146.31;2060765;28;20104;-50
2023/07/02 04:23:08;;;;;;;6.28;3.60;;;;;;;24.86;58.81;98153.06;2061216;28;21153;-51
2023/07/02 04:24:09;;;;;;;5.43;3.28;;;;;;;24.87;58.87;98148.47;2065078;28;20518;-50
2023/07/02 04:25:14;;;;;;;4.60;3.08;;;;;;;24.85;58.69;98150.59;2059582;28;20046;-49
2023/07/02 04:26:16;;;;;;;4.85;3.70;;;;;;;24.80;59.01;98148.69;2062514;28;20845;-48
2023/07/02 04:27:17;;;;;;;8.80;3.15;;;;;;;24.82;59.37;98151.13;2061266;28;20050;-49
2023/07/02 04:28:19;;;;;;;7.32;3.72;;;;;;;24.83;59.03;98152.78;2061448;28;20054;-50
2023/07/02 04:29:20;;;;;;;9.05;3.90;;;;;;;24.81;59.03;98150.31;2065795;28;20112;-47
2023/07/02 04:30:22;;;;;;;7.05;3.28;;;;;;;24.80;59.02;98156.81;2063818;28;20752;-50
2023/07/02 04:31:22;;;;;;;6.40;4.15;;;;;;;24.79;59.17;98154.34;2063294;28;20054;-49
2023/07/02 04:32:24;;;;;;;6.57;3.85;;;;;;;24.78;59.45;98152.72;2062430;28;20050;-48
2023/07/02 04:33:25;;;;;;;4.68;3.38;;;;;;;24.79;59.63;98160.59;2062025;28;20525;-48
2023/07/02 04:34:27;;;;;;;6.47;4.00;;;;;;;24.76;59.43;98158.38;2063877;28;20087;-48
2023/07/02 04:35:28;;;;;;;6.55;3.85;;;;;;;24.76;59.32;98163.81;2062726;28;20050;-50
2023/07/02 04:36:30;;;;;;;6.28;4.13;;;;;;;24.73;59.17;98153.47;2063402;28;20437;-49
2023/07/02 04:37:30;;;;;;;6.25;3.58;;;;;;;24.72;59.00;98149.94;2060031;28;20658;-48
2023/07/02 04:38:32;;;;;;;8.43;4.03;;;;;;;24.73;59.59;98157.00;2062424;28;20061;-49
2023/07/02 04:39:33;;;;;;;7.63;3.63;;;;;;;24.75;59.45;98160.28;2061879;28;20962;-51
2023/07/02 04:40:37;;;;;;;7.10;3.55;;;;;;;24.77;59.36;98154.63;2063179;28;20061;-49
2023/07/02 04:41:38;;;;;;;6.75;3.95;;;;;;;24.74;59.10;98158.66;2058166;28;20058;-49
2023/07/02 04:42:40;;;;;;;7.35;3.75;;;;;;;24.75;59.34;98156.75;2062875;28;20499;-47
2023/07/02 04:43:41;;;;;;;8.63;3.72;;;;;;;24.74;59.40;98166.78;2063596;28;20576;-49
2023/07/02 04:44:44;;;;;;;4.85;3.30;;;;;;;24.68;59.71;98159.69;2061386;28;20050;-49
2023/07/02 04:45:45;;;;;;;6.18;3.92;;;;;;;24.69;59.69;98158.59;2061541;28;20073;-49
2023/07/02 04:46:47;;;;;;;9.50;4.15;;;;;;;24.65;59.48;98162.06;2061024;28;20054;-48
2023/07/02 04:47:47;;;;;;;6.30;3.30;;;;;;;24.63;59.81;98164.25;2064107;28;20048;-50
2023/07/02 04:48:49;;;;;;;7.65;3.80;;;;;;;24.60;59.88;98170.13;2063062;28;20060;-49
2023/07/02 04:49:50;;;;;;;8.25;3.67;;;;;;;24.57;59.77;98160.63;2065032;28;20084;-50
2023/07/02 04:50:52;;;;;;;6.82;3.58;;;;;;;24.58;59.77;98158.75;2061772;28;20054;-48